Terminal Aerodrome Forecast
Issued by NWS Sioux Falls, SD

Home | Current Version | Previous Version | Graphics & Text | Print | Product List | Glossary Off
Versions: 1 2 3 4 5 6 7 8 9 10 11 12 13 14

000
FTUS43 KFSD 262320
TAFHON
TAF
KHON 262320Z 2700/2724 07005KT P6SM SKC
     FM270300 14004KT P6SM SKC
     FM271100 16008KT P6SM FEW250
     FM271400 17012G23KT P6SM FEW250
     FM271900 17018G26KT P6SM SCT080
     FM272200 17019G27KT P6SM BKN070=

USA.gov is the U.S. government's official web portal to all federal, state and local government web resources and services.